sensor_id;sensor_type;location;lat;lon;timestamp;P1;durP1;ratioP1;P2;durP2;ratioP2
63693;SDS011;49839;51.798;10.954;2023-07-29T00:01:43;2.05;;;0.82;;
63693;SDS011;49839;51.798;10.954;2023-07-29T00:06:39;3.65;;;0.77;;
63693;SDS011;49839;51.798;10.954;2023-07-29T00:09:06;2.45;;;0.80;;
63693;SDS011;49839;51.798;10.954;2023-07-29T00:11:34;1.85;;;0.77;;
63693;SDS011;49839;51.798;10.954;2023-07-29T00:14:02;1.35;;;0.80;;
63693;SDS011;49839;51.798;10.954;2023-07-29T00:16:30;1.25;;;0.70;;
63693;SDS011;49839;51.798;10.954;2023-07-29T00:18:59;2.55;;;0.77;;
63693;SDS011;49839;51.798;10.954;2023-07-29T00:21:27;3.95;;;0.80;;
63693;SDS011;49839;51.798;10.954;2023-07-29T00:23:54;3.63;;;0.70;;
63693;SDS011;49839;51.798;10.954;2023-07-29T00:26:23;3.15;;;0.95;;
63693;SDS011;49839;51.798;10.954;2023-07-29T00:28:52;3.47;;;1.00;;
63693;SDS011;49839;51.798;10.954;2023-07-29T00:31:20;1.90;;;0.80;;
63693;SDS011;49839;51.798;10.954;2023-07-29T00:33:47;2.42;;;1.00;;
63693;SDS011;49839;51.798;10.954;2023-07-29T00:36:16;1.02;;;0.80;;
63693;SDS011;49839;51.798;10.954;2023-07-29T00:38:44;1.77;;;0.70;;
63693;SDS011;49839;51.798;10.954;2023-07-29T00:41:12;3.17;;;0.90;;
63693;SDS011;49839;51.798;10.954;2023-07-29T00:43:40;2.10;;;0.80;;
63693;SDS011;49839;51.798;10.954;2023-07-29T00:46:08;1.23;;;0.77;;
63693;SDS011;49839;51.798;10.954;2023-07-29T00:48:36;0.93;;;0.63;;
63693;SDS011;49839;51.798;10.954;2023-07-29T00:51:05;1.50;;;0.90;;
63693;SDS011;49839;51.798;10.954;2023-07-29T00:53:34;0.82;;;0.75;;
63693;SDS011;49839;51.798;10.954;2023-07-29T00:56:01;1.40;;;0.80;;
63693;SDS011;49839;51.798;10.954;2023-07-29T00:58:29;1.45;;;0.80;;
63693;SDS011;49839;51.798;10.954;2023-07-29T01:00:57;1.00;;;0.88;;
63693;SDS011;49839;51.798;10.954;2023-07-29T01:03:25;1.95;;;0.75;;
63693;SDS011;49839;51.798;10.954;2023-07-29T01:05:58;2.45;;;0.70;;
63693;SDS011;49839;51.798;10.954;2023-07-29T01:08:37;1.55;;;0.90;;
63693;SDS011;49839;51.798;10.954;2023-07-29T01:11:14;3.45;;;1.10;;
63693;SDS011;49839;51.798;10.954;2023-07-29T01:13:53;0.85;;;0.65;;
63693;SDS011;49839;51.798;10.954;2023-07-29T01:16:30;1.23;;;0.88;;
63693;SDS011;49839;51.798;10.954;2023-07-29T01:19:05;1.15;;;0.90;;
63693;SDS011;49839;51.798;10.954;2023-07-29T01:21:35;0.85;;;0.70;;
63693;SDS011;49839;51.798;10.954;2023-07-29T01:24:04;2.08;;;0.82;;
63693;SDS011;49839;51.798;10.954;2023-07-29T01:26:32;2.80;;;0.88;;
63693;SDS011;49839;51.798;10.954;2023-07-29T01:29:00;1.20;;;0.80;;
63693;SDS011;49839;51.798;10.954;2023-07-29T01:31:30;2.03;;;0.80;;
63693;SDS011;49839;51.798;10.954;2023-07-29T01:36:50;1.42;;;0.80;;
63693;SDS011;49839;51.798;10.954;2023-07-29T01:39:23;1.00;;;0.70;;
63693;SDS011;49839;51.798;10.954;2023-07-29T01:41:52;1.25;;;0.88;;
63693;SDS011;49839;51.798;10.954;2023-07-29T01:44:20;3.50;;;0.93;;
63693;SDS011;49839;51.798;10.954;2023-07-29T01:46:48;1.58;;;0.88;;
63693;SDS011;49839;51.798;10.954;2023-07-29T01:49:17;1.83;;;1.20;;
63693;SDS011;49839;51.798;10.954;2023-07-29T01:51:44;7.70;;;1.05;;
63693;SDS011;49839;51.798;10.954;2023-07-29T01:54:12;1.02;;;0.73;;
63693;SDS011;49839;51.798;10.954;2023-07-29T01:56:41;2.13;;;0.95;;
63693;SDS011;49839;51.798;10.954;2023-07-29T01:59:09;2.13;;;0.80;;
63693;SDS011;49839;51.798;10.954;2023-07-29T02:01:36;2.97;;;0.95;;
63693;SDS011;49839;51.798;10.954;2023-07-29T02:04:04;2.50;;;1.00;;
63693;SDS011;49839;51.798;10.954;2023-07-29T02:06:32;1.20;;;0.90;;
63693;SDS011;49839;51.798;10.954;2023-07-29T02:09:00;1.83;;;0.90;;
63693;SDS011;49839;51.798;10.954;2023-07-29T02:11:28;6.00;;;0.85;;
63693;SDS011;49839;51.798;10.954;2023-07-29T02:13:57;1.00;;;0.80;;
63693;SDS011;49839;51.798;10.954;2023-07-29T02:16:24;1.95;;;0.80;;
63693;SDS011;49839;51.798;10.954;2023-07-29T02:18:52;1.98;;;0.90;;
63693;SDS011;49839;51.798;10.954;2023-07-29T02:21:21;1.55;;;0.80;;
63693;SDS011;49839;51.798;10.954;2023-07-29T02:23:49;1.23;;;0.73;;
63693;SDS011;49839;51.798;10.954;2023-07-29T02:26:17;1.40;;;0.80;;
63693;SDS011;49839;51.798;10.954;2023-07-29T02:28:45;2.58;;;1.00;;
63693;SDS011;49839;51.798;10.954;2023-07-29T02:31:16;1.65;;;0.82;;
63693;SDS011;49839;51.798;10.954;2023-07-29T02:33:44;3.22;;;1.05;;
63693;SDS011;49839;51.798;10.954;2023-07-29T02:36:13;2.13;;;0.90;;
63693;SDS011;49839;51.798;10.954;2023-07-29T02:38:41;2.03;;;0.90;;
63693;SDS011;49839;51.798;10.954;2023-07-29T02:41:09;2.78;;;0.90;;
63693;SDS011;49839;51.798;10.954;2023-07-29T02:43:39;3.22;;;0.90;;
63693;SDS011;49839;51.798;10.954;2023-07-29T02:46:07;1.50;;;0.90;;
63693;SDS011;49839;51.798;10.954;2023-07-29T02:48:36;1.73;;;0.90;;
63693;SDS011;49839;51.798;10.954;2023-07-29T02:51:04;4.15;;;1.00;;
63693;SDS011;49839;51.798;10.954;2023-07-29T02:53:32;1.90;;;0.90;;
63693;SDS011;49839;51.798;10.954;2023-07-29T02:56:00;2.17;;;1.00;;
63693;SDS011;49839;51.798;10.954;2023-07-29T02:58:27;1.90;;;0.95;;
63693;SDS011;49839;51.798;10.954;2023-07-29T03:01:00;2.58;;;1.00;;
63693;SDS011;49839;51.798;10.954;2023-07-29T03:03:28;1.83;;;0.77;;
63693;SDS011;49839;51.798;10.954;2023-07-29T03:06:01;4.57;;;1.00;;
63693;SDS011;49839;51.798;10.954;2023-07-29T03:08:30;3.08;;;0.98;;
63693;SDS011;49839;51.798;10.954;2023-07-29T03:10:58;1.65;;;1.00;;
63693;SDS011;49839;51.798;10.954;2023-07-29T03:13:26;3.35;;;1.20;;
63693;SDS011;49839;51.798;10.954;2023-07-29T03:15:54;4.85;;;1.02;;
63693;SDS011;49839;51.798;10.954;2023-07-29T03:18:21;1.75;;;1.10;;
63693;SDS011;49839;51.798;10.954;2023-07-29T03:20:49;3.08;;;1.20;;
63693;SDS011;49839;51.798;10.954;2023-07-29T03:23:18;2.90;;;1.02;;
63693;SDS011;49839;51.798;10.954;2023-07-29T03:25:47;3.63;;;1.05;;
63693;SDS011;49839;51.798;10.954;2023-07-29T03:28:17;2.53;;;0.95;;
63693;SDS011;49839;51.798;10.954;2023-07-29T03:30:44;2.53;;;1.20;;
63693;SDS011;49839;51.798;10.954;2023-07-29T03:33:12;2.28;;;1.13;;
63693;SDS011;49839;51.798;10.954;2023-07-29T03:35:40;3.35;;;1.17;;
63693;SDS011;49839;51.798;10.954;2023-07-29T03:38:10;1.98;;;1.00;;
63693;SDS011;49839;51.798;10.954;2023-07-29T03:40:40;3.03;;;1.05;;
63693;SDS011;49839;51.798;10.954;2023-07-29T03:43:08;2.33;;;1.02;;
63693;SDS011;49839;51.798;10.954;2023-07-29T03:45:36;1.77;;;0.95;;
63693;SDS011;49839;51.798;10.954;2023-07-29T03:48:04;2.45;;;1.10;;
63693;SDS011;49839;51.798;10.954;2023-07-29T03:50:33;2.15;;;1.10;;
63693;SDS011;49839;51.798;10.954;2023-07-29T03:53:02;3.47;;;1.23;;
63693;SDS011;49839;51.798;10.954;2023-07-29T03:55:30;1.60;;;1.08;;
63693;SDS011;49839;51.798;10.954;2023-07-29T03:57:59;2.20;;;1.00;;
63693;SDS011;49839;51.798;10.954;2023-07-29T04:00:27;2.25;;;1.10;;
63693;SDS011;49839;51.798;10.954;2023-07-29T04:02:55;1.10;;;0.88;;
63693;SDS011;49839;51.798;10.954;2023-07-29T04:05:23;1.63;;;0.85;;
63693;SDS011;49839;51.798;10.954;2023-07-29T04:07:51;3.15;;;0.90;;
63693;SDS011;49839;51.798;10.954;2023-07-29T04:10:20;2.20;;;1.00;;
63693;SDS011;49839;51.798;10.954;2023-07-29T04:12:47;3.10;;;1.10;;
63693;SDS011;49839;51.798;10.954;2023-07-29T04:15:17;3.60;;;1.05;;
63693;SDS011;49839;51.798;10.954;2023-07-29T04:17:44;2.22;;;1.15;;
63693;SDS011;49839;51.798;10.954;2023-07-29T04:20:12;1.92;;;1.20;;
63693;SDS011;49839;51.798;10.954;2023-07-29T04:22:40;1.77;;;1.00;;
63693;SDS011;49839;51.798;10.954;2023-07-29T04:25:08;2.42;;;1.00;;
63693;SDS011;49839;51.798;10.954;2023-07-29T04:27:36;1.77;;;0.90;;
63693;SDS011;49839;51.798;10.954;2023-07-29T04:30:04;2.65;;;1.10;;
63693;SDS011;49839;51.798;10.954;2023-07-29T04:32:34;1.90;;;1.00;;
63693;SDS011;49839;51.798;10.954;2023-07-29T04:35:02;2.28;;;1.10;;
63693;SDS011;49839;51.798;10.954;2023-07-29T04:37:30;2.45;;;1.00;;
63693;SDS011;49839;51.798;10.954;2023-07-29T04:39:57;1.65;;;0.82;;
63693;SDS011;49839;51.798;10.954;2023-07-29T04:42:25;1.80;;;0.85;;
63693;SDS011;49839;51.798;10.954;2023-07-29T04:44:53;1.77;;;0.85;;
63693;SDS011;49839;51.798;10.954;2023-07-29T04:47:21;2.72;;;1.10;;
63693;SDS011;49839;51.798;10.954;2023-07-29T04:49:51;2.55;;;0.88;;
63693;SDS011;49839;51.798;10.954;2023-07-29T04:52:18;1.83;;;0.85;;
63693;SDS011;49839;51.798;10.954;2023-07-29T04:54:48;2.53;;;1.00;;
63693;SDS011;49839;51.798;10.954;2023-07-29T04:57:15;3.17;;;1.00;;
63693;SDS011;49839;51.798;10.954;2023-07-29T04:59:43;2.53;;;1.00;;
63693;SDS011;49839;51.798;10.954;2023-07-29T05:02:11;2.97;;;0.90;;
63693;SDS011;49839;51.798;10.954;2023-07-29T05:04:39;2.25;;;1.00;;
63693;SDS011;49839;51.798;10.954;2023-07-29T05:07:08;1.58;;;0.88;;
63693;SDS011;49839;51.798;10.954;2023-07-29T05:12:04;1.65;;;0.82;;
63693;SDS011;49839;51.798;10.954;2023-07-29T05:14:33;1.20;;;0.77;;
63693;SDS011;49839;51.798;10.954;2023-07-29T05:17:01;2.80;;;0.95;;
63693;SDS011;49839;51.798;10.954;2023-07-29T05:19:28;1.88;;;0.80;;
63693;SDS011;49839;51.798;10.954;2023-07-29T05:21:56;2.30;;;0.68;;
63693;SDS011;49839;51.798;10.954;2023-07-29T05:24:26;2.72;;;0.77;;
63693;SDS011;49839;51.798;10.954;2023-07-29T05:26:53;1.23;;;0.70;;
63693;SDS011;49839;51.798;10.954;2023-07-29T05:29:21;1.10;;;0.63;;
63693;SDS011;49839;51.798;10.954;2023-07-29T05:31:49;2.17;;;0.80;;
63693;SDS011;49839;51.798;10.954;2023-07-29T05:34:17;1.05;;;0.68;;
63693;SDS011;49839;51.798;10.954;2023-07-29T05:36:44;0.95;;;0.70;;
63693;SDS011;49839;51.798;10.954;2023-07-29T05:39:13;2.35;;;0.70;;
63693;SDS011;49839;51.798;10.954;2023-07-29T05:41:42;1.83;;;0.70;;
63693;SDS011;49839;51.798;10.954;2023-07-29T05:44:10;1.25;;;0.77;;
63693;SDS011;49839;51.798;10.954;2023-07-29T05:46:38;1.98;;;0.75;;
63693;SDS011;49839;51.798;10.954;2023-07-29T05:49:06;3.67;;;0.70;;
63693;SDS011;49839;51.798;10.954;2023-07-29T05:51:34;0.88;;;0.60;;
63693;SDS011;49839;51.798;10.954;2023-07-29T05:54:01;2.90;;;0.80;;
63693;SDS011;49839;51.798;10.954;2023-07-29T05:56:29;0.82;;;0.60;;
63693;SDS011;49839;51.798;10.954;2023-07-29T05:58:59;0.93;;;0.68;;
63693;SDS011;49839;51.798;10.954;2023-07-29T06:01:26;1.80;;;0.60;;
63693;SDS011;49839;51.798;10.954;2023-07-29T06:03:54;1.33;;;0.80;;
63693;SDS011;49839;51.798;10.954;2023-07-29T06:06:22;2.58;;;0.70;;
63693;SDS011;49839;51.798;10.954;2023-07-29T06:08:50;4.03;;;0.90;;
63693;SDS011;49839;51.798;10.954;2023-07-29T06:11:17;1.15;;;0.68;;
63693;SDS011;49839;51.798;10.954;2023-07-29T06:13:47;1.30;;;0.70;;
63693;SDS011;49839;51.798;10.954;2023-07-29T06:16:16;2.47;;;0.80;;
63693;SDS011;49839;51.798;10.954;2023-07-29T06:18:44;1.33;;;0.70;;
63693;SDS011;49839;51.798;10.954;2023-07-29T06:21:11;1.60;;;0.80;;
63693;SDS011;49839;51.798;10.954;2023-07-29T06:23:43;4.65;;;1.20;;
63693;SDS011;49839;51.798;10.954;2023-07-29T06:26:11;1.73;;;0.80;;
63693;SDS011;49839;51.798;10.954;2023-07-29T06:28:39;1.30;;;0.75;;
63693;SDS011;49839;51.798;10.954;2023-07-29T06:31:07;1.33;;;0.75;;
63693;SDS011;49839;51.798;10.954;2023-07-29T06:33:36;1.90;;;0.63;;
63693;SDS011;49839;51.798;10.954;2023-07-29T06:36:04;1.88;;;0.80;;
63693;SDS011;49839;51.798;10.954;2023-07-29T06:38:32;1.40;;;0.80;;
63693;SDS011;49839;51.798;10.954;2023-07-29T06:40:59;2.00;;;0.70;;
63693;SDS011;49839;51.798;10.954;2023-07-29T06:43:27;2.45;;;0.80;;
63693;SDS011;49839;51.798;10.954;2023-07-29T06:45:55;1.95;;;0.60;;
63693;SDS011;49839;51.798;10.954;2023-07-29T06:48:23;2.40;;;0.60;;
63693;SDS011;49839;51.798;10.954;2023-07-29T06:50:52;1.05;;;0.60;;
63693;SDS011;49839;51.798;10.954;2023-07-29T06:53:21;0.57;;;0.43;;
63693;SDS011;49839;51.798;10.954;2023-07-29T06:55:49;0.52;;;0.40;;
63693;SDS011;49839;51.798;10.954;2023-07-29T06:58:16;1.33;;;0.40;;
63693;SDS011;49839;51.798;10.954;2023-07-29T07:00:44;3.58;;;1.23;;
63693;SDS011;49839;51.798;10.954;2023-07-29T07:03:12;1.00;;;0.45;;
63693;SDS011;49839;51.798;10.954;2023-07-29T07:05:40;1.15;;;0.40;;
63693;SDS011;49839;51.798;10.954;2023-07-29T07:08:09;0.50;;;0.40;;
63693;SDS011;49839;51.798;10.954;2023-07-29T07:10:37;2.65;;;0.60;;
63693;SDS011;49839;51.798;10.954;2023-07-29T07:13:05;1.08;;;0.40;;
63693;SDS011;49839;51.798;10.954;2023-07-29T07:15:35;1.02;;;0.45;;
63693;SDS011;49839;51.798;10.954;2023-07-29T07:18:03;0.45;;;0.40;;
63693;SDS011;49839;51.798;10.954;2023-07-29T07:20:30;9.77;;;1.30;;
63693;SDS011;49839;51.798;10.954;2023-07-29T07:22:58;0.40;;;0.40;;
63693;SDS011;49839;51.798;10.954;2023-07-29T07:25:27;1.42;;;0.55;;
63693;SDS011;49839;51.798;10.954;2023-07-29T07:30:23;0.77;;;0.50;;
63693;SDS011;49839;51.798;10.954;2023-07-29T07:32:51;1.58;;;0.65;;
63693;SDS011;49839;51.798;10.954;2023-07-29T07:35:19;2.63;;;0.70;;
63693;SDS011;49839;51.798;10.954;2023-07-29T07:37:47;1.80;;;0.60;;
63693;SDS011;49839;51.798;10.954;2023-07-29T07:40:14;2.58;;;0.70;;
63693;SDS011;49839;51.798;10.954;2023-07-29T07:42:44;1.13;;;0.60;;
63693;SDS011;49839;51.798;10.954;2023-07-29T07:47:39;1.40;;;0.90;;
63693;SDS011;49839;51.798;10.954;2023-07-29T07:50:07;1.08;;;0.60;;
63693;SDS011;49839;51.798;10.954;2023-07-29T07:52:35;1.20;;;0.80;;
63693;SDS011;49839;51.798;10.954;2023-07-29T07:55:03;0.98;;;0.60;;
63693;SDS011;49839;51.798;10.954;2023-07-29T07:57:31;1.98;;;0.70;;
63693;SDS011;49839;51.798;10.954;2023-07-29T08:00:01;1.80;;;0.82;;
63693;SDS011;49839;51.798;10.954;2023-07-29T08:04:56;1.70;;;0.77;;
63693;SDS011;49839;51.798;10.954;2023-07-29T08:07:24;2.65;;;0.88;;
63693;SDS011;49839;51.798;10.954;2023-07-29T08:09:52;2.15;;;0.98;;
63693;SDS011;49839;51.798;10.954;2023-07-29T08:12:19;3.03;;;0.90;;
63693;SDS011;49839;51.798;10.954;2023-07-29T08:14:47;1.50;;;0.88;;
63693;SDS011;49839;51.798;10.954;2023-07-29T08:17:16;1.40;;;0.73;;
63693;SDS011;49839;51.798;10.954;2023-07-29T08:22:12;5.57;;;1.00;;
63693;SDS011;49839;51.798;10.954;2023-07-29T08:24:39;2.28;;;0.90;;
63693;SDS011;49839;51.798;10.954;2023-07-29T08:27:07;1.50;;;0.90;;
63693;SDS011;49839;51.798;10.954;2023-07-29T08:29:35;2.75;;;0.90;;
63693;SDS011;49839;51.798;10.954;2023-07-29T08:32:03;3.28;;;0.90;;
63693;SDS011;49839;51.798;10.954;2023-07-29T08:34:32;2.38;;;0.60;;
63693;SDS011;49839;51.798;10.954;2023-07-29T08:36:59;1.95;;;0.70;;
63693;SDS011;49839;51.798;10.954;2023-07-29T08:39:27;3.00;;;0.90;;
63693;SDS011;49839;51.798;10.954;2023-07-29T08:41:57;2.38;;;0.60;;
63693;SDS011;49839;51.798;10.954;2023-07-29T08:44:29;1.70;;;0.63;;
63693;SDS011;49839;51.798;10.954;2023-07-29T08:47:00;0.80;;;0.47;;
63693;SDS011;49839;51.798;10.954;2023-07-29T08:49:28;2.92;;;0.60;;
63693;SDS011;49839;51.798;10.954;2023-07-29T08:51:58;0.93;;;0.40;;
63693;SDS011;49839;51.798;10.954;2023-07-29T08:54:27;2.83;;;0.60;;
63693;SDS011;49839;51.798;10.954;2023-07-29T08:56:55;2.08;;;0.73;;
63693;SDS011;49839;51.798;10.954;2023-07-29T08:59:23;3.85;;;0.80;;
63693;SDS011;49839;51.798;10.954;2023-07-29T09:01:53;1.13;;;0.60;;
63693;SDS011;49839;51.798;10.954;2023-07-29T09:04:22;1.77;;;0.60;;
63693;SDS011;49839;51.798;10.954;2023-07-29T09:06:50;1.20;;;0.68;;
63693;SDS011;49839;51.798;10.954;2023-07-29T09:09:20;0.87;;;0.53;;
63693;SDS011;49839;51.798;10.954;2023-07-29T09:11:48;0.80;;;0.60;;
63693;SDS011;49839;51.798;10.954;2023-07-29T09:14:16;1.48;;;0.50;;
63693;SDS011;49839;51.798;10.954;2023-07-29T09:19:18;1.77;;;0.70;;
63693;SDS011;49839;51.798;10.954;2023-07-29T09:21:46;2.10;;;0.90;;
63693;SDS011;49839;51.798;10.954;2023-07-29T09:24:15;2.88;;;1.08;;
63693;SDS011;49839;51.798;10.954;2023-07-29T09:26:49;3.47;;;0.98;;
63693;SDS011;49839;51.798;10.954;2023-07-29T09:29:21;2.05;;;1.00;;
63693;SDS011;49839;51.798;10.954;2023-07-29T09:31:50;3.97;;;1.25;;
63693;SDS011;49839;51.798;10.954;2023-07-29T09:34:17;3.60;;;1.02;;
63693;SDS011;49839;51.798;10.954;2023-07-29T09:36:45;3.67;;;1.00;;
63693;SDS011;49839;51.798;10.954;2023-07-29T09:39:13;1.90;;;0.77;;
63693;SDS011;49839;51.798;10.954;2023-07-29T09:41:41;2.92;;;1.00;;
63693;SDS011;49839;51.798;10.954;2023-07-29T09:44:16;2.17;;;1.20;;
63693;SDS011;49839;51.798;10.954;2023-07-29T09:46:45;3.20;;;1.00;;
63693;SDS011;49839;51.798;10.954;2023-07-29T09:49:13;3.03;;;1.60;;
63693;SDS011;49839;51.798;10.954;2023-07-29T09:51:41;2.58;;;0.90;;
63693;SDS011;49839;51.798;10.954;2023-07-29T09:54:09;1.17;;;0.77;;
63693;SDS011;49839;51.798;10.954;2023-07-29T09:56:39;2.05;;;1.10;;
63693;SDS011;49839;51.798;10.954;2023-07-29T09:59:09;1.45;;;0.70;;
63693;SDS011;49839;51.798;10.954;2023-07-29T10:01:39;4.95;;;0.90;;
63693;SDS011;49839;51.798;10.954;2023-07-29T10:04:08;2.58;;;0.82;;
63693;SDS011;49839;51.798;10.954;2023-07-29T10:06:39;1.45;;;0.85;;
63693;SDS011;49839;51.798;10.954;2023-07-29T10:09:07;0.95;;;0.73;;
63693;SDS011;49839;51.798;10.954;2023-07-29T10:11:35;2.47;;;0.88;;
63693;SDS011;49839;51.798;10.954;2023-07-29T10:14:03;2.05;;;0.80;;
63693;SDS011;49839;51.798;10.954;2023-07-29T10:16:34;3.00;;;0.80;;
63693;SDS011;49839;51.798;10.954;2023-07-29T10:19:05;2.20;;;0.90;;
63693;SDS011;49839;51.798;10.954;2023-07-29T10:21:35;1.30;;;0.88;;
63693;SDS011;49839;51.798;10.954;2023-07-29T10:24:08;0.98;;;0.80;;
63693;SDS011;49839;51.798;10.954;2023-07-29T10:26:41;2.33;;;0.80;;
63693;SDS011;49839;51.798;10.954;2023-07-29T10:29:14;3.55;;;1.15;;
63693;SDS011;49839;51.798;10.954;2023-07-29T10:31:47;6.93;;;1.55;;
63693;SDS011;49839;51.798;10.954;2023-07-29T10:34:17;3.33;;;1.05;;
63693;SDS011;49839;51.798;10.954;2023-07-29T10:36:46;2.67;;;1.00;;
63693;SDS011;49839;51.798;10.954;2023-07-29T10:39:15;2.83;;;0.82;;
63693;SDS011;49839;51.798;10.954;2023-07-29T10:47:17;1.60;;;0.80;;
63693;SDS011;49839;51.798;10.954;2023-07-29T10:49:50;2.35;;;0.85;;
63693;SDS011;49839;51.798;10.954;2023-07-29T10:52:30;1.83;;;1.00;;
63693;SDS011;49839;51.798;10.954;2023-07-29T10:55:23;1.40;;;0.80;;
63693;SDS011;49839;51.798;10.954;2023-07-29T10:57:52;1.85;;;1.10;;
63693;SDS011;49839;51.798;10.954;2023-07-29T11:00:31;1.05;;;0.70;;
63693;SDS011;49839;51.798;10.954;2023-07-29T11:03:00;3.55;;;0.80;;
63693;SDS011;49839;51.798;10.954;2023-07-29T11:05:42;1.90;;;0.98;;
63693;SDS011;49839;51.798;10.954;2023-07-29T11:08:16;2.78;;;0.90;;
63693;SDS011;49839;51.798;10.954;2023-07-29T11:10:57;2.70;;;0.90;;
63693;SDS011;49839;51.798;10.954;2023-07-29T11:13:26;1.77;;;0.80;;
63693;SDS011;49839;51.798;10.954;2023-07-29T11:15:55;1.90;;;0.80;;
63693;SDS011;49839;51.798;10.954;2023-07-29T11:18:26;0.80;;;0.60;;
63693;SDS011;49839;51.798;10.954;2023-07-29T11:20:57;2.35;;;0.80;;
63693;SDS011;49839;51.798;10.954;2023-07-29T11:23:31;1.27;;;0.70;;
63693;SDS011;49839;51.798;10.954;2023-07-29T11:26:00;2.20;;;0.80;;
63693;SDS011;49839;51.798;10.954;2023-07-29T11:28:29;1.55;;;0.77;;
63693;SDS011;49839;51.798;10.954;2023-07-29T11:30:57;3.80;;;0.90;;
63693;SDS011;49839;51.798;10.954;2023-07-29T11:33:26;3.25;;;0.95;;
63693;SDS011;49839;51.798;10.954;2023-07-29T11:35:55;1.60;;;0.80;;
63693;SDS011;49839;51.798;10.954;2023-07-29T11:40:55;1.85;;;0.80;;
63693;SDS011;49839;51.798;10.954;2023-07-29T11:43:26;1.58;;;0.80;;
63693;SDS011;49839;51.798;10.954;2023-07-29T11:45:54;2.88;;;1.48;;
63693;SDS011;49839;51.798;10.954;2023-07-29T11:48:28;2.55;;;1.15;;
63693;SDS011;49839;51.798;10.954;2023-07-29T11:51:01;3.50;;;1.00;;
63693;SDS011;49839;51.798;10.954;2023-07-29T11:53:30;2.03;;;1.05;;
63693;SDS011;49839;51.798;10.954;2023-07-29T11:55:58;2.03;;;1.10;;
63693;SDS011;49839;51.798;10.954;2023-07-29T11:58:26;2.67;;;1.15;;
63693;SDS011;49839;51.798;10.954;2023-07-29T12:00:54;1.58;;;1.05;;
63693;SDS011;49839;51.798;10.954;2023-07-29T12:03:22;7.53;;;1.58;;
63693;SDS011;49839;51.798;10.954;2023-07-29T12:05:50;1.38;;;0.88;;
63693;SDS011;49839;51.798;10.954;2023-07-29T12:08:19;2.08;;;1.05;;
63693;SDS011;49839;51.798;10.954;2023-07-29T12:13:15;2.40;;;0.98;;
63693;SDS011;49839;51.798;10.954;2023-07-29T12:15:42;2.75;;;1.15;;
63693;SDS011;49839;51.798;10.954;2023-07-29T12:18:10;2.72;;;1.10;;
63693;SDS011;49839;51.798;10.954;2023-07-29T12:20:39;2.58;;;1.20;;
63693;SDS011;49839;51.798;10.954;2023-07-29T12:23:07;2.75;;;1.05;;
63693;SDS011;49839;51.798;10.954;2023-07-29T12:25:36;2.25;;;1.10;;
63693;SDS011;49839;51.798;10.954;2023-07-29T12:28:05;3.00;;;1.10;;
63693;SDS011;49839;51.798;10.954;2023-07-29T12:30:34;3.25;;;1.10;;
63693;SDS011;49839;51.798;10.954;2023-07-29T12:33:08;3.50;;;1.00;;
63693;SDS011;49839;51.798;10.954;2023-07-29T12:35:36;4.30;;;1.17;;
63693;SDS011;49839;51.798;10.954;2023-07-29T12:38:04;4.18;;;1.20;;
63693;SDS011;49839;51.798;10.954;2023-07-29T12:40:33;3.75;;;1.38;;
63693;SDS011;49839;51.798;10.954;2023-07-29T12:43:07;1.77;;;1.20;;
63693;SDS011;49839;51.798;10.954;2023-07-29T12:45:37;2.42;;;1.27;;
63693;SDS011;49839;51.798;10.954;2023-07-29T12:48:06;2.05;;;1.10;;
63693;SDS011;49839;51.798;10.954;2023-07-29T12:50:34;3.40;;;1.23;;
63693;SDS011;49839;51.798;10.954;2023-07-29T12:53:03;1.95;;;0.90;;
63693;SDS011;49839;51.798;10.954;2023-07-29T12:58:00;4.05;;;1.25;;
63693;SDS011;49839;51.798;10.954;2023-07-29T13:00:28;2.28;;;1.15;;
63693;SDS011;49839;51.798;10.954;2023-07-29T13:02:56;1.85;;;1.00;;
63693;SDS011;49839;51.798;10.954;2023-07-29T13:05:24;2.60;;;1.30;;
63693;SDS011;49839;51.798;10.954;2023-07-29T13:07:52;4.07;;;1.13;;
63693;SDS011;49839;51.798;10.954;2023-07-29T13:10:19;2.60;;;1.00;;
63693;SDS011;49839;51.798;10.954;2023-07-29T13:12:47;2.63;;;1.15;;
63693;SDS011;49839;51.798;10.954;2023-07-29T13:15:16;3.60;;;1.10;;
63693;SDS011;49839;51.798;10.954;2023-07-29T13:17:44;3.22;;;1.10;;
63693;SDS011;49839;51.798;10.954;2023-07-29T13:20:12;9.15;;;1.88;;
63693;SDS011;49839;51.798;10.954;2023-07-29T13:22:40;5.50;;;1.13;;
63693;SDS011;49839;51.798;10.954;2023-07-29T13:25:07;2.20;;;1.10;;
63693;SDS011;49839;51.798;10.954;2023-07-29T13:27:35;2.83;;;1.10;;
63693;SDS011;49839;51.798;10.954;2023-07-29T13:30:03;1.58;;;1.10;;
63693;SDS011;49839;51.798;10.954;2023-07-29T13:32:33;2.92;;;1.10;;
63693;SDS011;49839;51.798;10.954;2023-07-29T13:35:01;4.95;;;1.27;;
63693;SDS011;49839;51.798;10.954;2023-07-29T13:37:29;2.60;;;1.08;;
63693;SDS011;49839;51.798;10.954;2023-07-29T13:39:57;3.55;;;1.15;;
63693;SDS011;49839;51.798;10.954;2023-07-29T13:42:25;2.33;;;1.30;;
63693;SDS011;49839;51.798;10.954;2023-07-29T13:44:53;3.63;;;1.25;;
63693;SDS011;49839;51.798;10.954;2023-07-29T13:47:21;2.70;;;1.35;;
63693;SDS011;49839;51.798;10.954;2023-07-29T13:49:50;3.55;;;1.40;;
63693;SDS011;49839;51.798;10.954;2023-07-29T13:54:45;2.63;;;1.40;;
63693;SDS011;49839;51.798;10.954;2023-07-29T13:57:13;5.00;;;1.45;;
63693;SDS011;49839;51.798;10.954;2023-07-29T13:59:40;3.78;;;1.50;;
63693;SDS011;49839;51.798;10.954;2023-07-29T14:02:08;3.10;;;1.70;;
63693;SDS011;49839;51.798;10.954;2023-07-29T14:04:36;4.90;;;1.70;;
63693;SDS011;49839;51.798;10.954;2023-07-29T14:07:05;3.30;;;1.70;;
63693;SDS011;49839;51.798;10.954;2023-07-29T14:09:33;3.20;;;1.25;;
63693;SDS011;49839;51.798;10.954;2023-07-29T14:12:02;2.10;;;1.30;;
63693;SDS011;49839;51.798;10.954;2023-07-29T14:14:30;1.63;;;1.03;;
63693;SDS011;49839;51.798;10.954;2023-07-29T14:16:57;2.00;;;1.20;;
63693;SDS011;49839;51.798;10.954;2023-07-29T14:19:25;2.58;;;1.20;;
63693;SDS011;49839;51.798;10.954;2023-07-29T14:21:53;2.53;;;1.48;;
63693;SDS011;49839;51.798;10.954;2023-07-29T14:24:22;2.67;;;1.50;;
63693;SDS011;49839;51.798;10.954;2023-07-29T14:26:50;3.00;;;1.20;;
63693;SDS011;49839;51.798;10.954;2023-07-29T14:29:18;2.88;;;1.10;;
63693;SDS011;49839;51.798;10.954;2023-07-29T14:31:45;4.47;;;0.98;;
63693;SDS011;49839;51.798;10.954;2023-07-29T14:34:13;1.92;;;1.08;;
63693;SDS011;49839;51.798;10.954;2023-07-29T14:36:41;1.58;;;1.10;;
63693;SDS011;49839;51.798;10.954;2023-07-29T14:39:09;3.20;;;1.08;;
63693;SDS011;49839;51.798;10.954;2023-07-29T14:41:38;2.15;;;0.98;;
63693;SDS011;49839;51.798;10.954;2023-07-29T14:44:05;1.52;;;0.82;;
63693;SDS011;49839;51.798;10.954;2023-07-29T14:46:33;2.38;;;1.10;;
63693;SDS011;49839;51.798;10.954;2023-07-29T14:49:01;1.77;;;1.00;;
63693;SDS011;49839;51.798;10.954;2023-07-29T14:51:29;1.67;;;1.00;;
63693;SDS011;49839;51.798;10.954;2023-07-29T14:53:57;2.40;;;0.95;;
63693;SDS011;49839;51.798;10.954;2023-07-29T14:56:25;1.90;;;0.88;;
63693;SDS011;49839;51.798;10.954;2023-07-29T14:58:54;3.80;;;0.90;;
63693;SDS011;49839;51.798;10.954;2023-07-29T15:01:22;1.85;;;0.75;;
63693;SDS011;49839;51.798;10.954;2023-07-29T15:03:50;1.48;;;0.93;;
63693;SDS011;49839;51.798;10.954;2023-07-29T15:06:18;1.52;;;0.88;;
63693;SDS011;49839;51.798;10.954;2023-07-29T15:08:46;1.73;;;0.90;;
63693;SDS011;49839;51.798;10.954;2023-07-29T15:11:13;2.08;;;0.93;;
63693;SDS011;49839;51.798;10.954;2023-07-29T15:13:41;1.50;;;0.82;;
63693;SDS011;49839;51.798;10.954;2023-07-29T15:16:10;1.77;;;0.80;;
63693;SDS011;49839;51.798;10.954;2023-07-29T15:21:06;2.22;;;0.80;;